메인 페이지
METAR-TAF:

METAR-TAF

공항 :

Poza Rica, 멕시코

위도: 20-31N, 경도: 097-28W, 고도: 15m

현재 날씨관측

예보는 8 시간 14분 전, 00:40시(UTC)에 발표되었습니다.
동남동10kt
온도 28°C
습도 79%
기압 1006 hPa
시정: 9.7km
고도 2000ft 상공 구름 조금, 타워링 적운.
고도 30000ft 상공 구름 많음

METAR: MMPA 210040Z 12010KT 6SM FEW020TCU BKN300 28/24 A2970 RMK 8/208 HZY

시각: 03:54 (08:54 UTC)

예보

예보는 3 시간 0분 전, 05:54시(UTC)에 발표되었습니다.
예보 대상 시간: 21일 06시부터 22일 06시까지 (UTC)
동남동10kt
시정: 10km
고도 2000ft 상공 구름 보통, 적란운.
고도 30000ft 상공 구름 보통
21일 1000시부터 (UTC)
kt
시정: 6.4km
고도 1500ft 상공 구름 보통
연무
일시적
21일 11시부터 21일 15시까지 (UTC)
시정: 4.8km
박무
21일 1500시부터 (UTC)
kt
시정: 8.0km
고도 2000ft 상공 구름 보통
연무
전환 중
21일 18시부터 21일 20시까지 (UTC)
북북동15kt
고도 2000ft 상공 구름 보통, 적란운.
22일 0000시부터 (UTC)
kt
시정: 10km
고도 2000ft 상공 구름 보통

TAF: MMPA 210554Z 2106/2206 12010KT P6SM SCT020CB SCT300 FM211000 00000KT 4SM HZ SCT015 TEMPO 2111/2115 3SM BR FM211500 00000KT 5SM HZ SCT020 BECMG 2118/2120 03015KT SCT020CB FM220000 00000KT P6SM SCT020

4,000개 이상의 공항 관측 자료 및 예보 (METAR 및 TAF 보고).

지도상에서 검색 가능한 기상관측소가 노란 점과 빨간 점으로 표시되어 있습니다.

기상관측소 명을 보려면 표시 위로 마우스를 이동하세요.

날씨 관측과 예보를 보려면 클릭하세요.

지도 변경 : 확대하려면 엑스 표시가 있는 녹색 버튼, 축소하려면 빼기 표시가 있는 녹색 버튼, 다음 페이지의 지도를 보려면 녹색 화살표를 클릭하세요.


METAR-TAF: